Time;durP1;ratioP1;P1;durP2;ratioP2;P2;SDS_P1;SDS_P2;PMS_P1;PMS_P2;Temp;Humidity;BMP_temperature;BMP_pressure;BME280_temperature;BME280_humidity;BME280_pressure;Samples;Min_cycle;Max_cycle;Signal;HPM_P1;HPM_P2
2021/07/16 00:02:07;;;;;;;;;;;20.30;94.10;;;19.51;93.71;100793.03;5010618;28;19980;-83
2021/07/16 00:04:34;;;;;;;;;;;20.30;94.60;;;19.50;93.25;100791.34;5012084;28;20016;-83
2021/07/16 00:07:01;;;;;;;;;;;20.30;94.10;;;19.50;93.35;100788.56;5011303;28;20016;-83
2021/07/16 00:09:28;;;;;;;;;;;20.20;94.00;;;19.49;92.78;100789.63;5012097;28;19968;-83
2021/07/16 00:11:55;;;;;;;;;;;20.20;93.90;;;19.49;93.20;100784.13;5011947;28;20341;-83
2021/07/16 00:14:24;;;;;;;;;;;20.20;94.10;;;19.49;93.09;100791.56;5011317;28;20040;-84
2021/07/16 00:16:52;;;;;;;;;;;20.20;94.50;;;19.48;92.97;100792.66;5010872;28;20016;-83
2021/07/16 00:19:19;;;;;;;;;;;20.20;93.70;;;19.46;92.99;100801.19;5011624;28;19921;-83
2021/07/16 00:21:46;;;;;;;;;;;20.20;94.30;;;19.45;93.05;100793.97;5011858;28;20412;-83
2021/07/16 00:24:13;;;;;;;;;;;20.20;94.40;;;19.47;93.24;100788.22;5011511;28;19925;-83
2021/07/16 00:26:40;;;;;;;;;;;20.20;94.30;;;19.46;92.62;100792.91;5009575;28;19929;-83
2021/07/16 00:29:07;;;;;;;;;;;20.20;93.80;;;19.44;92.33;100786.78;5011734;28;19933;-83
2021/07/16 00:31:37;;;;;;;;;;;20.20;93.60;;;19.41;92.15;100786.41;5011407;28;19936;-83
2021/07/16 00:34:04;;;;;;;;;;;20.10;93.80;;;19.41;92.44;100787.22;5011572;28;19921;-83
2021/07/16 00:36:31;;;;;;;;;;;20.20;93.90;;;19.42;92.34;100780.66;5010496;28;19937;-83
2021/07/16 00:38:58;;;;;;;;;;;20.20;93.70;;;19.40;92.16;100791.09;5011592;28;20469;-83
2021/07/16 00:41:25;;;;;;;;;;;20.20;93.30;;;19.40;92.54;100798.50;5011289;28;19929;-83
2021/07/16 00:43:52;;;;;;;;;;;20.10;94.00;;;19.39;92.16;100800.44;5011348;28;20688;-83
2021/07/16 00:46:20;;;;;;;;;;;20.10;92.70;;;19.41;92.16;100808.47;5010655;28;19926;-83
2021/07/16 00:48:48;;;;;;;;;;;20.20;93.90;;;19.39;92.24;100805.94;5011002;28;19976;-83
2021/07/16 00:51:15;;;;;;;;;;;20.20;93.90;;;19.39;91.85;100811.47;4994561;28;20020;-84
2021/07/16 00:53:42;;;;;;;;;;;20.20;94.10;;;19.39;92.19;100810.63;4993315;28;19983;-83
2021/07/16 00:56:09;;;;;;;;;;;20.10;94.00;;;19.37;92.03;100810.03;5010172;28;19979;-83
2021/07/16 00:58:36;;;;;;;;;;;20.10;93.70;;;19.38;91.96;100815.31;5010762;28;19968;-82
2021/07/16 01:01:06;;;;;;;;;;;20.10;93.30;;;19.36;91.85;100811.09;5011044;28;20028;-84
2021/07/16 01:03:33;;;;;;;;;;;20.10;93.60;;;19.34;92.10;100814.97;5010975;28;19971;-83
2021/07/16 01:06:02;;;;;;;;;;;20.10;93.70;;;19.34;91.66;100820.47;5010333;28;19932;-83
2021/07/16 01:08:29;;;;;;;;;;;20.10;93.40;;;19.33;91.59;100817.94;5010905;28;20301;-83
2021/07/16 01:10:56;;;;;;;;;;;20.00;93.30;;;19.33;91.79;100806.91;5010668;28;19921;-83
2021/07/16 01:13:24;;;;;;;;;;;20.10;93.80;;;19.32;91.59;100805.22;4993091;28;20029;-83
2021/07/16 01:15:51;;;;;;;;;;;20.10;92.80;;;19.32;91.34;100811.59;5009973;28;19956;-83
2021/07/16 01:18:18;;;;;;;;;;;20.00;93.40;;;19.30;91.70;100813.72;5009608;28;20023;-83
2021/07/16 01:20:46;;;;;;;;;;;20.00;93.60;;;19.27;91.29;100808.69;5010265;28;19925;-84
2021/07/16 01:23:17;;;;;;;;;;;20.00;93.20;;;19.28;91.48;100815.88;5010533;28;19932;-83
2021/07/16 01:25:44;;;;;;;;;;;20.00;93.60;;;19.27;91.39;100813.38;5010621;28;19925;-84
2021/07/16 01:28:11;;;;;;;;;;;20.00;93.90;;;19.27;91.62;100816.13;5009579;28;19953;-83
2021/07/16 01:30:39;;;;;;;;;;;19.90;94.00;;;19.26;91.52;100818.03;5010531;28;20024;-83
2021/07/16 01:33:06;;;;;;;;;;;19.90;93.90;;;19.26;92.00;100822.72;5010152;28;20016;-83
2021/07/16 01:35:34;;;;;;;;;;;19.90;94.40;;;19.25;92.24;100826.56;5028483;23;20414;-81
2021/07/16 01:38:01;;;;;;;;;;;19.90;94.40;;;19.23;92.31;100820.41;5027886;28;20337;-81
2021/07/16 01:40:35;;;;;;;;;;;19.90;94.70;;;19.21;92.49;100823.44;5030103;28;20016;-81
2021/07/16 01:43:04;;;;;;;;;;;19.90;94.90;;;19.18;92.45;100820.28;5029851;28;19921;-81
2021/07/16 01:45:34;;;;;;;;;;;19.90;94.70;;;19.18;92.55;100820.28;5024852;28;19932;-81
2021/07/16 01:48:02;;;;;;;;;;;19.90;94.60;;;19.18;92.48;100825.81;5009641;28;20403;-81
2021/07/16 01:50:30;;;;;;;;;;;19.90;94.60;;;19.18;92.47;100828.56;5010139;28;20767;-81
2021/07/16 01:52:58;;;;;;;;;;;19.90;94.50;;;19.17;92.39;100824.94;5010028;28;19980;-81
2021/07/16 01:55:26;;;;;;;;;;;19.90;94.40;;;19.16;92.33;100817.75;5009923;28;19928;-81
2021/07/16 01:57:55;;;;;;;;;;;19.90;93.90;;;19.17;92.18;100819.44;5009130;28;20379;-81
2021/07/16 02:00:25;;;;;;;;;;;19.90;94.40;;;19.18;92.33;100820.28;4992243;28;20249;-81
2021/07/16 02:02:54;;;;;;;;;;;19.90;94.30;;;19.17;91.96;100818.59;5009863;28;20020;-81
2021/07/16 02:05:24;;;;;;;;;;;19.90;94.10;;;19.18;91.87;100820.28;5009680;28;19925;-81
2021/07/16 02:07:53;;;;;;;;;;;19.80;94.20;;;19.14;91.85;100815.22;5009428;28;19925;-81
2021/07/16 02:10:20;;;;;;;;;;;19.80;93.90;;;19.14;91.63;100829.03;5009937;28;19975;-81
2021/07/16 02:12:48;;;;;;;;;;;19.80;94.00;;;19.11;91.31;100821.22;5009627;28;19922;-81
2021/07/16 02:15:18;;;;;;;;;;;19.80;92.80;;;19.11;91.22;100829.50;5009695;28;19975;-81
2021/07/16 02:17:45;;;;;;;;;;;19.70;93.80;;;19.11;90.95;100836.94;5008779;28;19997;-81
2021/07/16 02:20:23;;;;;;;;;;;19.80;92.90;;;19.11;90.86;100829.50;5009229;28;20415;-81
2021/07/16 02:22:51;;;;;;;;;;;19.70;93.70;;;19.09;90.82;100834.41;5009655;28;20401;-81
2021/07/16 02:25:18;;;;;;;;;;;19.70;93.60;;;19.08;90.27;100829.97;5008941;28;19955;-81
2021/07/16 02:27:46;;;;;;;;;;;19.70;93.00;;;19.08;90.46;100837.41;5008565;28;19929;-81
2021/07/16 02:30:14;;;;;;;;;;;19.70;93.40;;;19.08;90.31;100840.16;5008811;28;20378;-81
2021/07/16 02:32:44;;;;;;;;;;;19.70;93.30;;;19.06;89.95;100840.41;5009715;28;19979;-81
2021/07/16 02:35:12;;;;;;;;;;;19.70;93.40;;;19.04;90.44;100836.16;5009175;28;20311;-81
2021/07/16 02:37:39;;;;;;;;;;;19.70;93.50;;;19.03;90.45;100835.34;5008901;28;20331;-81
2021/07/16 02:40:09;;;;;;;;;;;19.70;93.50;;;19.04;90.13;100842.56;5009327;28;19963;-81
2021/07/16 02:42:36;;;;;;;;;;;19.70;93.20;;;19.01;89.94;100848.53;5009714;28;20016;-81
2021/07/16 02:45:06;;;;;;;;;;;19.60;93.10;;;19.00;90.02;100851.50;5009271;28;20960;-81
2021/07/16 02:47:33;;;;;;;;;;;19.60;92.80;;;18.99;89.81;100852.59;5008884;28;20017;-80
2021/07/16 02:50:02;;;;;;;;;;;19.60;92.90;;;18.98;89.89;100851.72;5009573;28;19931;-81
2021/07/16 02:52:29;;;;;;;;;;;19.60;93.10;;;18.98;89.63;100854.50;5009209;28;19926;-81
2021/07/16 02:54:56;;;;;;;;;;;19.60;92.60;;;18.98;89.54;100850.91;4992694;28;19922;-81
2021/07/16 02:57:23;;;;;;;;;;;19.60;92.80;;;18.97;89.44;100847.31;4989009;28;20446;-81
2021/07/16 02:59:50;;;;;;;;;;;19.60;92.50;;;18.97;89.40;100852.81;4989793;28;19969;-81
2021/07/16 03:02:17;;;;;;;;;;;19.60;92.80;;;18.95;89.78;100850.28;4989433;28;19948;-81
2021/07/16 03:04:46;;;;;;;;;;;19.60;93.20;;;18.96;89.50;100862.16;4989700;28;19964;-81
2021/07/16 03:07:15;;;;;;;;;;;19.60;92.90;;;18.93;89.57;100857.13;4989078;28;19937;-81
2021/07/16 03:09:42;;;;;;;;;;;19.60;93.00;;;18.92;89.67;100871.97;4989669;28;19955;-81
2021/07/16 03:12:09;;;;;;;;;;;19.60;92.90;;;18.91;89.55;100864.78;4989827;28;19922;-81
2021/07/16 03:14:36;;;;;;;;;;;19.50;93.10;;;18.88;89.77;100871.59;4989464;28;19953;-81
2021/07/16 03:17:03;;;;;;;;;;;19.50;93.10;;;18.89;89.90;100867.78;4988873;28;20097;-81
2021/07/16 03:19:30;;;;;;;;;;;19.50;93.40;;;18.89;90.01;100872.44;4989325;28;19926;-81
2021/07/16 03:21:57;;;;;;;;;;;19.50;93.30;;;18.90;89.97;100882.41;4989614;28;19925;-81
2021/07/16 03:24:26;;;;;;;;;;;19.50;93.40;;;18.89;89.97;100883.50;4989401;28;19925;-81
2021/07/16 03:26:53;;;;;;;;;;;19.50;93.30;;;18.89;90.10;100877.97;4988194;28;20028;-81
2021/07/16 03:29:20;;;;;;;;;;;19.50;93.60;;;18.87;90.11;100880.94;4971881;28;19980;-81
2021/07/16 03:31:47;;;;;;;;;;;19.50;93.70;;;18.87;90.64;100885.63;4989013;28;19976;-81
2021/07/16 03:34:14;;;;;;;;;;;19.50;94.00;;;18.85;90.56;100879.47;4989463;28;19929;-81
2021/07/16 03:36:41;;;;;;;;;;;19.50;94.00;;;18.87;90.65;100882.88;4988308;28;19928;-81
2021/07/16 03:39:08;;;;;;;;;;;19.50;93.90;;;18.83;90.86;100876.97;4989489;28;19921;-81
2021/07/16 03:41:37;;;;;;;;;;;19.50;94.20;;;18.84;90.96;100883.31;4989607;28;20394;-81
2021/07/16 03:44:04;;;;;;;;;;;19.50;94.10;;;18.82;90.94;100879.97;4992910;28;19930;-81
2021/07/16 03:46:31;;;;;;;;;;;19.40;94.20;;;18.81;90.92;100886.53;4992011;28;19928;-81
2021/07/16 03:48:59;;;;;;;;;;;19.40;94.20;;;18.79;90.96;100886.75;4992610;28;20031;-81
2021/07/16 03:51:27;;;;;;;;;;;19.40;94.30;;;18.79;90.82;100880.38;4992771;28;19953;-81
2021/07/16 03:53:54;;;;;;;;;;;19.40;94.20;;;18.80;90.72;100887.59;4992556;28;19980;-81
2021/07/16 03:56:21;;;;;;;;;;;19.40;93.80;;;18.79;90.77;100889.50;4990594;28;20566;-81
2021/07/16 03:58:49;;;;;;;;;;;19.40;94.10;;;18.81;90.33;100892.03;4992287;28;20338;-81
2021/07/16 04:01:17;;;;;;;;;;;19.40;93.50;;;18.78;90.09;100893.31;4992492;28;19921;-81
2021/07/16 04:03:44;;;;;;;;;;;19.40;93.80;;;18.80;90.39;100893.09;4992226;28;20434;-81
2021/07/16 04:06:11;;;;;;;;;;;19.40;93.90;;;18.79;90.09;100886.75;4991537;28;19933;-81
2021/07/16 04:08:39;;;;;;;;;;;19.30;94.00;;;18.79;90.51;100888.66;4990916;28;19926;-81
2021/07/16 04:11:06;;;;;;;;;;;19.40;94.10;;;18.76;90.58;100884.44;4991372;28;19926;-81
2021/07/16 04:13:33;;;;;;;;;;;19.40;93.80;;;18.75;90.74;100889.13;4991853;28;20027;-81
2021/07/16 04:16:02;;;;;;;;;;;19.40;94.30;;;18.76;90.54;100881.69;4991401;28;19972;-80
2021/07/16 04:18:29;;;;;;;;;;;19.40;94.00;;;18.76;90.70;100888.03;4992009;28;20390;-81
2021/07/16 04:20:56;;;;;;;;;;;19.40;94.10;;;18.75;91.03;100889.13;4992211;28;19922;-81
2021/07/16 04:23:23;;;;;;;;;;;19.40;94.10;;;18.75;90.99;100896.53;4992126;28;19926;-80
2021/07/16 04:25:50;;;;;;;;;;;19.40;94.00;;;18.74;91.08;100898.47;4991503;28;20064;-81
2021/07/16 04:28:17;;;;;;;;;;;19.40;94.10;;;18.74;91.18;100903.97;4991671;28;19964;-81
2021/07/16 04:30:44;;;;;;;;;;;19.40;94.10;;;18.73;91.25;100907.81;4991944;28;19956;-81
2021/07/16 04:33:13;;;;;;;;;;;19.40;94.50;;;18.75;91.32;100905.66;4991397;28;19922;-81
2021/07/16 04:35:41;;;;;;;;;;;19.40;94.50;;;18.75;91.43;100907.56;4991589;28;20013;-81
2021/07/16 04:38:08;;;;;;;;;;;19.40;94.50;;;18.73;91.40;100918.84;4990610;28;19952;-81
2021/07/16 04:40:35;;;;;;;;;;;19.40;94.40;;;18.73;91.56;100915.22;4991578;28;19932;-84
2021/07/16 04:43:04;;;;;;;;;;;19.40;94.40;;;18.72;91.18;100919.91;4991860;28;20297;-83
2021/07/16 04:45:37;;;;;;;;;;;19.40;94.30;;;18.71;91.17;100915.44;4991118;28;19926;-83
2021/07/16 04:48:07;;;;;;;;;;;19.40;93.80;;;18.71;91.05;100920.97;4973426;28;20326;-84
2021/07/16 04:50:37;;;;;;;;;;;19.30;94.40;;;18.70;91.18;100922.03;4994010;28;19926;-83
2021/07/16 04:53:04;;;;;;;;;;;19.40;94.40;;;18.71;91.17;100920.97;4990876;28;19925;-83
2021/07/16 04:55:31;;;;;;;;;;;19.40;93.90;;;18.70;91.09;100921.22;4973501;28;20353;-83
2021/07/16 04:57:58;;;;;;;;;;;19.40;94.30;;;18.70;91.18;100922.03;4973055;28;19972;-83
2021/07/16 05:00:25;;;;;;;;;;;19.30;94.40;;;18.68;90.89;100921.44;4991151;28;19972;-83
2021/07/16 05:02:53;;;;;;;;;;;19.40;93.90;;;18.67;91.18;100919.75;4991369;28;19925;-83
2021/07/16 05:05:20;;;;;;;;;;;19.40;94.40;;;18.66;91.05;100918.06;4991370;28;20378;-84
2021/07/16 05:07:48;;;;;;;;;;;19.30;93.90;;;18.67;90.80;100919.75;4990406;28;20024;-84
2021/07/16 05:10:15;;;;;;;;;;;19.30;94.00;;;18.67;90.51;100914.22;4991363;28;20682;-83
2021/07/16 05:12:43;;;;;;;;;;;19.30;93.30;;;18.68;90.19;100920.59;4973584;28;20338;-83
2021/07/16 05:15:11;;;;;;;;;;;19.30;93.60;;;18.68;90.33;100915.94;4991328;28;20345;-83
2021/07/16 05:17:38;;;;;;;;;;;19.30;94.00;;;18.64;90.14;100920.22;4972916;28;19945;-83
2021/07/16 05:20:07;;;;;;;;;;;19.30;94.00;;;18.64;90.74;100914.69;4991313;28;19925;-83
2021/07/16 05:22:35;;;;;;;;;;;19.30;94.40;;;18.63;90.96;100924.03;4991132;28;19933;-81
2021/07/16 05:25:04;;;;;;;;;;;19.30;94.50;;;18.63;90.91;100929.53;4990968;28;19929;-81
2021/07/16 05:27:31;;;;;;;;;;;19.20;94.30;;;18.61;90.64;100926.16;4990570;28;20225;-82
2021/07/16 05:29:58;;;;;;;;;;;19.20;93.90;;;18.61;90.89;100931.69;4991016;28;20665;-82
2021/07/16 05:32:25;;;;;;;;;;;19.20;94.20;;;18.60;90.68;100932.78;4991023;28;19976;-82
2021/07/16 05:34:55;;;;;;;;;;;19.20;94.10;;;18.60;90.51;100935.53;4990692;28;19956;-82
2021/07/16 05:37:22;;;;;;;;;;;19.20;94.00;;;18.59;90.54;100938.50;4990188;28;19929;-82
2021/07/16 05:39:49;;;;;;;;;;;19.20;94.00;;;18.57;90.56;100941.47;4990729;28;19953;-82
2021/07/16 05:42:18;;;;;;;;;;;19.20;94.20;;;18.56;90.67;100939.78;4990621;28;19926;-81
2021/07/16 05:44:46;;;;;;;;;;;19.10;94.40;;;18.52;91.04;100941.31;4990663;28;19971;-81
2021/07/16 05:47:13;;;;;;;;;;;19.10;95.00;;;18.53;91.15;100945.78;4972133;28;20044;-81
2021/07/16 05:49:40;;;;;;;;;;;19.00;94.90;;;18.52;90.97;100944.06;4972573;28;19921;-81
2021/07/16 05:52:07;;;;;;;;;;;19.10;95.20;;;18.51;91.43;100943.22;4990129;28;19926;-81
2021/07/16 05:54:34;;;;;;;;;;;19.10;95.20;;;18.51;91.49;100943.22;4990453;28;19921;-81
2021/07/16 05:57:02;;;;;;;;;;;19.10;95.10;;;18.52;91.12;100939.44;4989447;28;20531;-81
2021/07/16 05:59:30;;;;;;;;;;;19.10;94.90;;;18.51;91.12;100942.41;4990358;28;19925;-84
2021/07/16 06:01:59;;;;;;;;;;;19.10;95.00;;;18.49;91.47;100950.88;4990269;28;20442;-81
2021/07/16 06:04:26;;;;;;;;;;;19.10;95.30;;;18.49;91.23;100952.81;4989961;28;19926;-82
2021/07/16 06:06:53;;;;;;;;;;;19.10;95.10;;;18.45;91.37;100957.94;4989656;28;19921;-81
2021/07/16 06:09:20;;;;;;;;;;;19.00;95.10;;;18.40;91.33;100959.69;4990982;28;19930;-82
2021/07/16 06:11:47;;;;;;;;;;;19.00;95.30;;;18.36;91.31;100959.28;5009904;28;19925;-83
2021/07/16 06:14:14;;;;;;;;;;;18.90;95.30;;;18.38;91.42;100961.81;5007462;28;20000;-84
2021/07/16 06:16:45;;;;;;;;;;;19.00;95.30;;;18.41;91.30;100966.84;5011604;28;20271;-84
2021/07/16 06:19:12;;;;;;;;;;;19.00;95.10;;;18.39;90.91;100972.63;4991529;28;20008;-84
2021/07/16 06:21:39;;;;;;;;;;;18.90;94.80;;;18.40;91.38;100968.78;5008813;28;19929;-83
2021/07/16 06:24:06;;;;;;;;;;;18.90;95.30;;;18.41;91.45;100966.84;5009529;28;20032;-84
2021/07/16 06:26:35;;;;;;;;;;;18.90;95.30;;;18.40;90.90;100963.25;5008640;28;19922;-83
2021/07/16 06:29:02;;;;;;;;;;;18.90;94.80;;;18.39;90.89;100971.75;5009343;28;19941;-85
2021/07/16 06:31:30;;;;;;;;;;;18.80;95.10;;;18.38;91.11;100975.59;5009467;28;19988;-83
2021/07/16 06:33:58;;;;;;;;;;;18.90;95.40;;;18.38;91.05;100976.44;5009120;28;20448;-84
2021/07/16 06:36:25;;;;;;;;;;;18.90;95.40;;;18.34;91.01;100984.31;5007850;28;20390;-83
2021/07/16 06:38:52;;;;;;;;;;;18.90;95.30;;;18.36;91.21;100984.09;5009097;28;19986;-84
2021/07/16 06:41:20;;;;;;;;;;;18.90;95.20;;;18.33;91.12;100985.38;5009378;28;19941;-83
2021/07/16 06:43:47;;;;;;;;;;;18.90;95.20;;;18.32;91.03;100975.41;5006766;28;19926;-84
2021/07/16 06:46:14;;;;;;;;;;;18.90;95.00;;;18.31;90.98;100981.97;4990843;28;20329;-84
2021/07/16 06:48:42;;;;;;;;;;;18.90;95.00;;;18.32;91.12;100994.69;5009438;28;19928;-83
2021/07/16 06:51:11;;;;;;;;;;;18.90;95.00;;;18.33;90.84;100998.28;5008962;28;19925;-84
2021/07/16 06:53:38;;;;;;;;;;;18.90;94.50;;;18.32;90.88;101000.22;5009269;28;19925;-84
2021/07/16 06:56:06;;;;;;;;;;;18.90;94.00;;;18.30;90.39;101002.34;5008428;28;20016;-83
2021/07/16 06:58:33;;;;;;;;;;;18.90;94.30;;;18.31;90.15;100998.50;5009297;28;19981;-82
2021/07/16 07:01:00;;;;;;;;;;;18.90;94.20;;;18.30;90.16;101002.34;5008061;28;20447;-83
2021/07/16 07:03:27;;;;;;;;;;;18.90;94.20;;;18.30;90.32;101001.53;5008736;28;20023;-81
2021/07/16 07:05:54;;;;;;;;;;;18.90;94.40;;;18.32;90.20;101016.75;5006956;28;20461;-82
2021/07/16 07:08:25;;;;;;;;;;;18.90;94.50;;;18.32;89.89;101011.25;5008852;28;19953;-82
2021/07/16 07:10:52;;;;;;;;;;;18.90;94.00;;;18.32;90.01;101005.72;5008963;28;19929;-82
2021/07/16 07:13:19;;;;;;;;;;;18.90;94.00;;;18.34;89.71;101008.25;5009026;28;20024;-81
2021/07/16 07:15:46;;;;;;;;;;;18.90;93.50;;;18.31;89.49;101012.28;5008776;28;19969;-82
2021/07/16 07:18:13;;;;;;;;;;;18.90;93.70;;;18.32;89.87;101011.25;5011726;28;19957;-82
2021/07/16 07:20:41;;;;;;;;;;;18.90;94.10;;;18.32;89.57;101013.16;5012122;28;19926;-83
2021/07/16 07:23:08;;;;;;;;;;;18.90;93.60;;;18.32;89.30;101013.16;5012661;28;19925;-83
2021/07/16 07:25:36;;;;;;;;;;;19.00;93.30;;;18.30;89.72;101018.88;5012266;28;19925;-82
2021/07/16 07:28:04;;;;;;;;;;;19.00;93.60;;;18.31;89.93;101020.56;5011868;28;19925;-83
2021/07/16 07:30:31;;;;;;;;;;;19.00;93.70;;;18.28;89.74;101021.03;5012712;28;19991;-83
2021/07/16 07:32:58;;;;;;;;;;;19.00;93.40;;;18.31;90.11;101025.22;5012328;28;19925;-84
2021/07/16 07:35:25;;;;;;;;;;;19.00;93.70;;;18.34;90.35;101031.16;5012435;28;19976;-82
2021/07/16 07:37:52;;;;;;;;;;;19.00;93.80;;;18.35;90.37;101027.34;5011702;28;19952;-82
2021/07/16 07:40:20;;;;;;;;;;;19.10;93.80;;;18.38;90.65;101025.19;5012421;28;19980;-81
2021/07/16 07:42:48;;;;;;;;;;;19.20;93.80;;;18.39;90.24;101024.13;5037272;22;20025;-77
2021/07/16 07:45:15;;;;;;;;;;;19.20;93.20;;;18.40;90.69;101025.81;5021015;28;20437;-79
2021/07/16 07:47:43;;;;;;;;;;;19.30;93.60;;;18.41;90.89;101033.00;5002958;28;20348;-80
2021/07/16 07:50:13;;;;;;;;;;;19.40;93.50;;;18.42;90.86;101031.94;5022484;28;20448;-80
2021/07/16 07:52:40;;;;;;;;;;;19.40;93.00;;;18.42;91.02;101038.28;5006660;28;20271;-80
2021/07/16 07:55:08;;;;;;;;;;;19.30;93.30;;;18.45;90.49;101035.09;5020612;28;19929;-80
2021/07/16 07:57:35;;;;;;;;;;;19.30;92.40;;;18.47;90.45;101034.88;5021494;28;20032;-81
2021/07/16 08:00:06;;;;;;;;;;;19.40;92.80;;;18.47;90.66;101041.22;5021900;28;20580;-81
2021/07/16 08:02:39;;;;;;;;;;;19.40;93.00;;;18.47;90.59;101040.41;5021298;28;19960;-81
2021/07/16 08:05:06;;;;;;;;;;;19.40;93.00;;;18.47;90.76;101034.88;5020799;28;19928;-81
2021/07/16 08:07:33;;;;;;;;;;;19.40;93.20;;;18.48;90.57;101039.31;5019746;28;19925;-83
2021/07/16 08:10:00;;;;;;;;;;;19.30;93.10;;;18.46;90.54;101033.19;5024132;28;20394;-82
2021/07/16 08:12:27;;;;;;;;;;;19.30;92.80;;;18.45;90.31;101037.00;5020306;28;19920;-81
2021/07/16 08:14:54;;;;;;;;;;;19.30;93.00;;;18.45;90.16;101042.50;5021764;28;19924;-78
2021/07/16 08:17:23;;;;;;;;;;;19.30;93.00;;;18.45;90.49;101053.53;5021190;28;19965;-79
2021/07/16 08:19:50;;;;;;;;;;;19.30;93.30;;;18.44;89.91;101051.84;5020271;28;20445;-78
2021/07/16 08:22:17;;;;;;;;;;;19.30;92.70;;;18.45;89.97;101048.00;5021782;28;19921;-79
2021/07/16 08:24:44;;;;;;;;;;;19.30;93.10;;;18.45;90.21;101050.78;5021828;28;19971;-79
2021/07/16 08:27:11;;;;;;;;;;;19.40;92.80;;;18.45;89.32;101053.53;5019474;28;19929;-79
2021/07/16 08:29:38;;;;;;;;;;;19.40;91.60;;;18.45;89.79;101046.13;5020407;28;20007;-79
2021/07/16 08:32:06;;;;;;;;;;;19.50;92.00;;;18.48;88.11;101053.09;5021541;28;20032;-78
2021/07/16 08:34:35;;;;;;;;;;;19.60;91.10;;;18.47;89.21;101059.69;5022102;28;19965;-79
2021/07/16 08:37:02;;;;;;;;;;;19.60;90.50;;;18.51;89.48;101060.94;5020750;28;19980;-79
2021/07/16 08:39:29;;;;;;;;;;;19.70;90.90;;;18.55;89.66;101063.00;5019985;28;19925;-80
2021/07/16 08:41:57;;;;;;;;;;;19.80;90.40;;;18.59;89.64;101059.81;5021492;28;19925;-81
2021/07/16 08:44:24;;;;;;;;;;;19.90;90.40;;;18.63;89.75;101066.56;5021348;28;19925;-80
2021/07/16 08:46:51;;;;;;;;;;;20.00;90.20;;;18.64;89.73;101060.81;5019768;28;19972;-78
2021/07/16 08:49:18;;;;;;;;;;;20.10;90.10;;;18.67;89.48;101059.50;5021073;28;19987;-77
2021/07/16 08:51:47;;;;;;;;;;;20.10;89.60;;;18.69;89.47;101068.41;5021570;28;19963;-78
2021/07/16 08:54:17;;;;;;;;;;;20.10;89.40;;;18.66;87.14;101083.50;5019932;28;19925;-77
2021/07/16 08:56:45;;;;;;;;;;;20.00;88.30;;;18.66;87.58;101089.00;5019576;28;19925;-77
2021/07/16 08:59:15;;;;;;;;;;;19.90;88.90;;;18.67;87.88;101090.69;5021772;28;19978;-78
2021/07/16 09:01:44;;;;;;;;;;;19.90;89.30;;;18.68;87.85;101088.78;5020564;28;19925;-78
2021/07/16 09:04:11;;;;;;;;;;;19.90;89.50;;;18.69;88.42;101084.94;5019331;28;19964;-77
2021/07/16 09:06:47;;;;;;;;;;;19.90;90.20;;;18.72;88.80;101092.78;5019300;28;19960;-78
2021/07/16 09:09:16;;;;;;;;;;;19.90;90.50;;;18.72;88.76;101093.63;5019830;28;20499;-77
2021/07/16 09:11:45;;;;;;;;;;;19.90;90.00;;;18.74;87.82;101085.13;5023051;28;19921;-77
2021/07/16 09:14:19;;;;;;;;;;;19.90;88.60;;;18.72;87.69;101088.09;5021228;28;20011;-78
2021/07/16 09:16:57;;;;;;;;;;;19.90;89.30;;;18.74;87.83;101096.16;5012762;28;19972;-78
2021/07/16 09:19:33;;;;;;;;;;;19.90;89.10;;;18.74;86.99;101102.50;5001049;28;19924;-78
2021/07/16 09:22:09;;;;;;;;;;;20.00;88.30;;;18.77;86.97;101103.97;5030169;28;19921;-77
2021/07/16 09:24:36;;;;;;;;;;;20.00;88.50;;;18.80;87.45;101105.44;5029570;28;20360;-77
2021/07/16 09:27:23;;;;;;;;;;;20.00;88.00;;;18.81;86.40;101107.16;5029169;28;19990;-77
2021/07/16 09:29:51;;;;;;;;;;;20.00;86.80;;;18.82;86.81;101108.84;5029879;28;19921;-79
2021/07/16 09:32:18;;;;;;;;;;;20.10;88.20;;;18.84;86.75;101102.03;5028978;28;20666;-79
2021/07/16 09:34:50;;;;;;;;;;;20.10;87.70;;;18.85;87.15;101102.88;5029978;28;19994;-78
2021/07/16 09:37:19;;;;;;;;;;;20.10;88.30;;;18.86;86.99;101105.41;5028914;28;19936;-78
2021/07/16 09:39:47;;;;;;;;;;;20.20;87.70;;;18.87;86.97;101107.09;5029241;28;19963;-77
2021/07/16 09:42:14;;;;;;;;;;;20.20;87.50;;;18.89;87.21;101112.41;5011486;28;20341;-81
2021/07/16 09:44:42;;;;;;;;;;;20.30;88.30;;;18.92;87.77;101114.69;5012167;28;19925;-80
2021/07/16 09:47:12;;;;;;;;;;;20.40;88.20;;;18.95;86.89;101109.56;5028937;28;19924;-80
2021/07/16 09:49:40;;;;;;;;;;;20.50;85.40;;;18.94;84.94;101112.56;5029707;28;20386;-79
2021/07/16 09:52:09;;;;;;;;;;;20.40;85.20;;;18.96;85.81;101113.16;5029460;28;20451;-81
2021/07/16 09:54:38;;;;;;;;;;;20.40;86.20;;;18.97;85.79;101109.34;5029393;28;19967;-80
2021/07/16 09:57:05;;;;;;;;;;;20.40;86.50;;;18.98;85.43;101105.50;5011156;28;20457;-76
2021/07/16 09:59:32;;;;;;;;;;;20.40;86.30;;;19.00;86.32;101108.03;5011361;28;20378;-78
2021/07/16 10:02:00;;;;;;;;;;;20.40;86.80;;;18.97;85.05;101112.09;5011494;28;19929;-81
2021/07/16 10:04:32;;;;;;;;;;;20.50;86.10;;;19.01;85.48;101113.34;5023103;28;20034;-78
2021/07/16 10:07:00;;;;;;;;;;;20.50;85.50;;;19.04;86.19;101112.03;5017378;28;19925;-78
2021/07/16 10:09:27;;;;;;;;;;;20.60;86.80;;;19.07;86.55;101106.06;5020666;28;20016;-78
2021/07/16 10:11:57;;;;;;;;;;;20.70;86.80;;;19.09;86.78;101102.00;5019058;28;19955;-76
2021/07/16 10:14:24;;;;;;;;;;;20.70;86.20;;;19.10;85.81;101112.00;5021769;28;19928;-77
2021/07/16 10:16:53;;;;;;;;;;;20.80;85.00;;;19.12;84.50;101115.38;5002990;28;19925;-80
2021/07/16 10:19:21;;;;;;;;;;;20.70;83.50;;;19.12;84.88;101107.09;5016250;28;20027;-80
2021/07/16 10:21:49;;;;;;;;;;;20.70;85.40;;;19.16;85.43;101112.16;5028390;28;19921;-80
2021/07/16 10:24:20;;;;;;;;;;;20.80;85.90;;;19.17;86.09;101105.56;5028673;28;19921;-80
2021/07/16 10:26:50;;;;;;;;;;;20.80;86.30;;;19.17;84.75;101109.16;5028586;28;19925;-80
2021/07/16 10:29:38;;;;;;;;;;;20.80;84.70;;;19.21;85.83;101109.53;5029165;28;20442;-80
2021/07/16 10:32:07;;;;;;;;;;;20.80;85.80;;;19.22;86.71;101109.31;5028858;28;19975;-80
2021/07/16 10:34:36;;;;;;;;;;;20.90;86.50;;;19.26;87.12;101110.56;5028063;28;19932;-80
2021/07/16 10:37:07;;;;;;;;;;;21.00;86.20;;;19.29;86.66;101112.88;5027775;28;20715;-80
2021/07/16 10:39:52;;;;;;;;;;;21.20;84.60;;;19.34;86.10;101115.78;5028083;28;19964;-80
2021/07/16 10:42:47;;;;;;;;;;;21.40;84.60;;;19.38;84.54;101107.91;5028649;28;19925;-80
2021/07/16 10:45:31;;;;;;;;;;;21.50;82.60;;;19.43;85.88;101113.56;5019223;28;19929;-80
2021/07/16 10:48:12;;;;;;;;;;;21.60;83.20;;;19.49;86.55;101115.41;5028050;28;19937;-80
2021/07/16 10:50:41;;;;;;;;;;;21.80;82.70;;;19.50;84.57;101119.03;5029111;28;19932;-80
2021/07/16 10:53:11;;;;;;;;;;;21.90;81.30;;;19.56;85.00;101120.03;5031845;28;20086;-80
2021/07/16 10:56:08;;;;;;;;;;;22.00;82.00;;;19.63;86.92;101132.69;5032932;28;19925;-80
2021/07/16 10:58:49;;;;;;;;;;;22.10;82.50;;;19.66;84.83;101125.84;5013135;28;19956;-80
2021/07/16 11:01:33;;;;;;;;;;;22.10;80.00;;;19.69;84.24;101131.75;5012839;28;19925;-80
2021/07/16 11:04:02;;;;;;;;;;;22.00;80.40;;;19.67;82.24;101133.91;5013245;28;20386;-80
2021/07/16 11:06:57;;;;;;;;;;;22.00;79.40;;;19.70;82.65;101135.34;5012539;28;19930;-80
2021/07/16 11:09:40;;;;;;;;;;;22.00;79.80;;;19.75;82.22;101140.25;5012947;28;20407;-78
2021/07/16 11:12:22;;;;;;;;;;;22.10;78.00;;;19.75;81.47;101140.25;5012812;28;19928;-82
2021/07/16 11:14:50;;;;;;;;;;;22.00;79.00;;;19.78;82.51;101135.09;5012870;28;19971;-80
2021/07/16 11:17:33;;;;;;;;;;;22.00;80.40;;;19.80;82.50;101138.47;5014564;28;19929;-78